createdAt,value
2018-02-14T00:01:05.448Z,94449.27
2018-02-14T00:04:08.736Z,94444.27
2018-02-14T00:07:12.008Z,94445.59
2018-02-14T00:10:26.880Z,94445.84
2018-02-14T00:13:31.260Z,94450.61
2018-02-14T00:16:34.525Z,94448.22
2018-02-14T00:19:37.890Z,94453.60
2018-02-14T00:22:50.647Z,94453.00
2018-02-14T00:25:55.870Z,94457.41
2018-02-14T00:28:59.265Z,94450.95
2018-02-14T00:32:02.538Z,94446.14
2018-02-14T00:35:06.671Z,94453.09
2018-02-14T00:38:09.934Z,94451.59
2018-02-14T00:41:13.972Z,94453.94
2018-02-14T00:44:18.310Z,94457.88
2018-02-14T00:47:21.665Z,94462.41
2018-02-14T00:50:25.033Z,94464.55
2018-02-14T00:53:28.305Z,94467.76
2018-02-14T00:56:32.502Z,94468.63
2018-02-14T00:59:36.544Z,94473.21
2018-02-14T01:02:39.804Z,94464.97
2018-02-14T01:05:43.167Z,94474.22
2018-02-14T01:08:46.446Z,94471.83
2018-02-14T01:11:49.722Z,94473.97
2018-02-14T01:14:53.753Z,94478.11
2018-02-14T01:17:57.025Z,94469.07
2018-02-14T01:21:01.309Z,94472.42
2018-02-14T01:24:04.681Z,94475.80
2018-02-14T01:27:07.972Z,94477.98
2018-02-14T01:30:11.253Z,94478.11
2018-02-14T01:33:15.312Z,94476.74
2018-02-14T01:36:18.591Z,94482.42
2018-02-14T01:39:21.860Z,94476.36
2018-02-14T01:42:25.155Z,94478.76
2018-02-14T01:45:28.431Z,94480.35
2018-02-14T01:48:31.729Z,94487.86
2018-02-14T01:51:35.035Z,94489.66
2018-02-14T01:54:39.095Z,94493.16
2018-02-14T01:57:42.532Z,94496.89
2018-02-14T02:00:45.824Z,94493.19
2018-02-14T02:03:49.151Z,94492.03
2018-02-14T02:06:53.188Z,94494.00
2018-02-14T02:09:56.484Z,94494.28
2018-02-14T02:12:59.760Z,94491.95
2018-02-14T02:16:05.427Z,94495.66
2018-02-14T02:19:08.689Z,94487.64
2018-02-14T02:22:11.974Z,94492.14
2018-02-14T02:25:15.259Z,94498.23
2018-02-14T02:28:18.539Z,94495.01
2018-02-14T02:31:21.807Z,94497.02
2018-02-14T02:34:25.839Z,94497.06
2018-02-14T02:37:29.114Z,94495.95
2018-02-14T02:40:33.148Z,94496.63
2018-02-14T02:43:36.424Z,94495.97
2018-02-14T02:46:40.505Z,94499.86
2018-02-14T02:49:43.777Z,94496.91
2018-02-14T02:52:47.155Z,94498.42
2018-02-14T02:55:50.490Z,94498.22
2018-02-14T02:58:53.865Z,94499.31
2018-02-14T03:01:57.416Z,94498.05
2018-02-14T03:05:00.698Z,94507.28
2018-02-14T03:08:03.973Z,94502.87
2018-02-14T03:11:07.262Z,94507.80
2018-02-14T03:14:10.558Z,94517.11
2018-02-14T03:17:13.813Z,94520.03
2018-02-14T03:20:17.855Z,94527.25
2018-02-14T03:23:21.120Z,94518.69
2018-02-14T03:26:24.408Z,94524.52
2018-02-14T03:29:27.908Z,94522.20
2018-02-14T03:32:31.196Z,94518.63
2018-02-14T03:35:34.541Z,94523.06
2018-02-14T03:38:38.715Z,94523.16
2018-02-14T03:41:42.795Z,94521.70
2018-02-14T03:44:46.176Z,94526.13
2018-02-14T03:47:50.213Z,94528.98
2018-02-14T03:50:53.487Z,94533.26
2018-02-14T03:53:56.761Z,94537.12
2018-02-14T03:57:00.039Z,94545.53
2018-02-14T04:00:03.435Z,94551.19
2018-02-14T04:03:06.779Z,94551.28
2018-02-14T04:06:10.052Z,94561.91
2018-02-14T04:09:13.324Z,94569.63
2018-02-14T04:12:16.590Z,94571.53
2018-02-14T04:15:19.855Z,94574.67
2018-02-14T04:18:24.516Z,94581.72
2018-02-14T04:21:27.811Z,94585.72
2018-02-14T04:24:31.071Z,94591.41
2018-02-14T04:27:34.398Z,94592.80
2018-02-14T04:30:39.687Z,94600.34
2018-02-14T04:33:42.952Z,94607.61
2018-02-14T04:36:47.314Z,94607.21
2018-02-14T04:39:50.651Z,94618.84
2018-02-14T04:42:54.696Z,94617.78
2018-02-14T04:45:58.012Z,94616.03
2018-02-14T04:49:01.292Z,94622.33
2018-02-14T04:52:04.590Z,94630.56
2018-02-14T04:55:07.867Z,94634.84
2018-02-14T04:58:11.163Z,94631.60
2018-02-14T05:01:14.474Z,94642.96
2018-02-14T05:04:17.769Z,94651.55
2018-02-14T05:07:21.060Z,94655.83
2018-02-14T05:10:24.342Z,94653.33
2018-02-14T05:13:28.381Z,94662.47
2018-02-14T05:16:31.674Z,94672.10
2018-02-14T05:19:34.972Z,94675.47
2018-02-14T05:22:38.249Z,94676.98
2018-02-14T05:25:42.289Z,94679.95
2018-02-14T05:28:45.574Z,94679.83
2018-02-14T05:31:48.968Z,94676.20
2018-02-14T05:34:53.024Z,94681.33
2018-02-14T05:37:56.317Z,94687.94
2018-02-14T05:40:59.738Z,94691.98
2018-02-14T05:44:03.230Z,94691.67
2018-02-14T05:47:06.513Z,94703.11
2018-02-14T05:50:09.800Z,94701.69
2018-02-14T05:53:13.208Z,94708.57
2018-02-14T05:56:16.479Z,94715.41
2018-02-14T05:59:19.740Z,94721.32
2018-02-14T06:02:23.019Z,94719.86
2018-02-14T06:05:26.279Z,94723.09
2018-02-14T06:08:29.763Z,94733.02
2018-02-14T06:11:33.811Z,94740.00
2018-02-14T06:14:37.084Z,94745.14
2018-02-14T06:17:40.403Z,94754.38
2018-02-14T06:20:43.680Z,94758.56
2018-02-14T06:23:47.021Z,94770.87
2018-02-14T06:26:50.302Z,94768.27
2018-02-14T06:29:53.672Z,94774.09
2018-02-14T06:32:56.969Z,94778.30
2018-02-14T06:36:00.758Z,94782.22
2018-02-14T06:39:04.905Z,94795.66
2018-02-14T06:42:08.318Z,94795.52
2018-02-14T06:45:11.581Z,94791.97
2018-02-14T06:48:15.687Z,94805.03
2018-02-14T06:51:19.791Z,94804.70
2018-02-14T06:54:23.072Z,94809.99
2018-02-14T06:57:26.352Z,94814.91
2018-02-14T07:00:29.732Z,94822.88
2018-02-14T07:03:33.004Z,94811.82
2018-02-14T07:06:37.070Z,94824.11
2018-02-14T07:09:40.451Z,94831.63
2018-02-14T07:12:43.760Z,94827.48
2018-02-14T07:15:47.028Z,94834.05
2018-02-14T07:18:50.300Z,94839.52
2018-02-14T07:21:53.893Z,94844.08
2018-02-14T07:24:57.164Z,94850.04
2018-02-14T07:28:00.428Z,94855.39
2018-02-14T07:31:03.852Z,94858.82
2018-02-14T07:34:07.145Z,94860.16
2018-02-14T07:37:10.540Z,94853.98
2018-02-14T07:40:14.053Z,94872.31
2018-02-14T07:43:17.430Z,94875.14
2018-02-14T07:46:20.749Z,94871.27
2018-02-14T07:49:25.536Z,94874.70
2018-02-14T07:52:29.473Z,94872.53
2018-02-14T07:55:32.916Z,94879.37
2018-02-14T07:58:36.262Z,94879.14
2018-02-14T08:01:39.571Z,94877.69
2018-02-14T08:04:43.656Z,94885.20
2018-02-14T08:07:48.838Z,94886.74
2018-02-14T08:10:52.205Z,94896.28
2018-02-14T08:13:55.473Z,94896.45
2018-02-14T08:16:59.696Z,94908.37
2018-02-14T08:20:03.132Z,94899.81
2018-02-14T08:23:07.247Z,94897.19
2018-02-14T08:26:11.286Z,94904.22
2018-02-14T08:29:14.557Z,94899.11
2018-02-14T08:32:18.625Z,94896.25
2018-02-14T08:35:21.988Z,94909.91
2018-02-14T08:38:25.293Z,94904.05
2018-02-14T08:41:28.592Z,94909.83
2018-02-14T08:44:31.889Z,94908.82
2018-02-14T08:47:35.930Z,94913.88
2018-02-14T08:50:39.300Z,94919.06
2018-02-14T08:53:43.347Z,94916.48
2018-02-14T08:56:46.643Z,94926.61
2018-02-14T08:59:49.968Z,94923.53
2018-02-14T09:02:54.169Z,94924.81
2018-02-14T09:05:57.397Z,94923.61
2018-02-14T09:09:00.684Z,94919.50
2018-02-14T09:12:04.136Z,94923.34
2018-02-14T09:15:08.341Z,94928.47
2018-02-14T09:18:12.386Z,94931.32
2018-02-14T09:21:15.661Z,94935.66
2018-02-14T09:24:21.743Z,94940.30
2018-02-14T09:27:25.073Z,94944.89
2018-02-14T09:30:28.480Z,94941.55
2018-02-14T09:33:31.774Z,94946.45
2018-02-14T09:36:35.336Z,94936.97
2018-02-14T09:39:38.682Z,94946.30
2018-02-14T09:42:41.975Z,94947.54
2018-02-14T09:45:45.234Z,94956.02
2018-02-14T09:48:48.513Z,94956.61
2018-02-14T09:51:52.572Z,94957.05
2018-02-14T09:54:55.856Z,94956.66
2018-02-14T09:57:59.175Z,94950.28
2018-02-14T10:01:02.501Z,94964.06
2018-02-14T10:04:05.809Z,94964.67
2018-02-14T10:07:09.274Z,94957.10
2018-02-14T10:10:12.559Z,94956.59
2018-02-14T10:13:16.599Z,94956.23
2018-02-14T10:16:19.932Z,94963.19
2018-02-14T10:19:24.004Z,94958.19
2018-02-14T10:22:28.106Z,94954.76
2018-02-14T10:25:32.170Z,94959.39
2018-02-14T10:28:35.440Z,94957.45
2018-02-14T10:31:38.732Z,94951.77
2018-02-14T10:34:42.041Z,94957.16
2018-02-14T10:37:45.832Z,94956.14
2018-02-14T10:40:49.945Z,94955.77
2018-02-14T10:43:53.976Z,94957.38
2018-02-14T10:46:57.276Z,94959.98
2018-02-14T10:50:04.878Z,94959.42
2018-02-14T10:53:08.190Z,94963.86
2018-02-14T10:56:11.520Z,94959.70
2018-02-14T10:59:15.672Z,94966.30
2018-02-14T11:02:18.937Z,94968.04
2018-02-14T11:05:28.939Z,94963.08
2018-02-14T11:08:32.236Z,94969.20
2018-02-14T11:11:35.585Z,94967.03
2018-02-14T11:14:38.864Z,94968.61
2018-02-14T11:17:42.168Z,94975.55
2018-02-14T11:20:45.494Z,94965.99
2018-02-14T11:23:48.764Z,94966.92
2018-02-14T11:26:52.310Z,94966.43
2018-02-14T11:29:55.667Z,94961.41
2018-02-14T11:32:59.524Z,94967.80
2018-02-14T11:36:03.040Z,94969.30
2018-02-14T11:39:06.345Z,94978.33
2018-02-14T11:42:09.742Z,94984.36
2018-02-14T11:45:13.020Z,94977.84
2018-02-14T11:48:17.129Z,94980.23
2018-02-14T11:51:20.497Z,94986.46
2018-02-14T11:54:24.257Z,94981.33
2018-02-14T11:57:27.534Z,94987.27
2018-02-14T12:00:31.584Z,94993.31
2018-02-14T12:03:34.871Z,94997.04
2018-02-14T12:06:38.172Z,94991.78
2018-02-14T12:09:41.773Z,94994.15
2018-02-14T12:12:45.452Z,94995.22
2018-02-14T12:15:49.514Z,94999.14
2018-02-14T12:18:54.260Z,95000.01
2018-02-14T12:21:57.560Z,94994.58
2018-02-14T12:25:00.970Z,94991.73
2018-02-14T12:28:04.462Z,94994.06
2018-02-14T12:31:07.767Z,94993.30
2018-02-14T12:34:11.104Z,94998.13
2018-02-14T12:37:15.146Z,94995.11
2018-02-14T12:40:18.427Z,94988.66
2018-02-14T12:43:21.724Z,94992.16
2018-02-14T12:46:26.060Z,94989.23
2018-02-14T12:49:30.181Z,94989.16
2018-02-14T12:52:33.769Z,94990.63
2018-02-14T12:55:37.093Z,94987.80
2018-02-14T12:58:40.344Z,94986.09
2018-02-14T13:01:44.385Z,94981.73
2018-02-14T13:04:47.660Z,94983.25
2018-02-14T13:07:50.917Z,94979.28
2018-02-14T13:10:54.271Z,94978.03
2018-02-14T13:13:58.317Z,94978.78
2018-02-14T13:17:01.576Z,94979.77
2018-02-14T13:20:05.961Z,94971.54
2018-02-14T13:23:09.243Z,94970.95
2018-02-14T13:26:12.496Z,94970.87
2018-02-14T13:29:16.523Z,94979.56
2018-02-14T13:32:20.705Z,94982.71
2018-02-14T13:35:23.977Z,94984.27
2018-02-14T13:38:27.262Z,94981.86
2018-02-14T13:41:30.542Z,94979.91
2018-02-14T13:44:33.851Z,94986.75
2018-02-14T13:47:37.178Z,94983.59
2018-02-14T13:50:40.454Z,94978.02
2018-02-14T13:53:43.817Z,94976.97
2018-02-14T13:56:47.840Z,94982.71
2018-02-14T13:59:51.961Z,94981.63
2018-02-14T14:02:55.250Z,94984.02
2018-02-14T14:05:59.272Z,94987.65
2018-02-14T14:09:02.735Z,94992.17
2018-02-14T14:12:06.173Z,94989.55
2018-02-14T14:15:09.470Z,94992.33
2018-02-14T14:18:12.758Z,95001.84
2018-02-14T14:21:16.084Z,94996.13
2018-02-14T14:24:19.346Z,95000.73
2018-02-14T14:27:23.379Z,95005.63
2018-02-14T14:30:28.122Z,95003.09
2018-02-14T14:33:31.421Z,94999.16
2018-02-14T14:36:34.858Z,95003.12
2018-02-14T14:39:38.162Z,95013.38
2018-02-14T14:42:41.430Z,95006.34
2018-02-14T14:45:44.704Z,95015.49
2018-02-14T14:48:48.021Z,95012.04
2018-02-14T14:51:52.071Z,95017.01
2018-02-14T14:54:55.355Z,95021.11
2018-02-14T14:57:58.610Z,95027.56
2018-02-14T15:01:01.912Z,95030.32
2018-02-14T15:04:05.308Z,95031.50
2018-02-14T15:07:08.730Z,95034.00
2018-02-14T15:10:12.116Z,95040.16
2018-02-14T15:13:15.604Z,95041.86
2018-02-14T15:16:19.644Z,95038.45
2018-02-14T15:19:22.958Z,95043.66
2018-02-14T15:22:26.234Z,95048.48
2018-02-14T15:25:29.501Z,95048.89
2018-02-14T15:28:33.612Z,95049.16
2018-02-14T15:31:36.891Z,95056.87
2018-02-14T15:34:40.156Z,95054.66
2018-02-14T15:37:43.477Z,95063.13
2018-02-14T15:40:46.741Z,95062.08
2018-02-14T15:43:50.069Z,95062.87
2018-02-14T15:46:53.376Z,95054.89
2018-02-14T15:49:56.644Z,95060.13
2018-02-14T15:53:00.136Z,95066.77
2018-02-14T15:56:03.424Z,95068.30
2018-02-14T15:59:06.834Z,95072.84
2018-02-14T16:02:10.145Z,95073.12
2018-02-14T16:05:13.540Z,95079.34
2018-02-14T16:08:16.909Z,95083.89
2018-02-14T16:11:21.372Z,95080.49
2018-02-14T16:14:24.700Z,95082.41
2018-02-14T16:17:28.345Z,95085.07
2018-02-14T16:20:32.377Z,95086.19
2018-02-14T16:23:35.658Z,95087.70
2018-02-14T16:26:38.977Z,95091.20
2018-02-14T16:29:42.304Z,95095.36
2018-02-14T16:32:45.580Z,95107.72
2018-02-14T16:35:48.974Z,95115.20
2018-02-14T16:38:52.263Z,95116.42
2018-02-14T16:41:55.584Z,95115.55
2018-02-14T16:44:58.973Z,95111.73
2018-02-14T16:48:02.260Z,95114.98
2018-02-14T16:51:05.586Z,95120.00
2018-02-14T16:54:08.856Z,95121.16
2018-02-14T16:57:12.150Z,95121.05
2018-02-14T17:00:15.450Z,95126.87
2018-02-14T17:03:18.745Z,95135.82
2018-02-14T17:06:22.991Z,95134.17
2018-02-14T17:09:28.295Z,95141.67
2018-02-14T17:12:31.917Z,95143.09
2018-02-14T17:15:35.440Z,95142.38
2018-02-14T17:18:39.512Z,95145.22
2018-02-14T17:21:44.034Z,95152.44
2018-02-14T17:24:48.129Z,95153.27
2018-02-14T17:27:51.385Z,95157.67
2018-02-14T17:30:54.656Z,95152.14
2018-02-14T17:33:58.704Z,95161.60
2018-02-14T17:37:01.986Z,95161.28
2018-02-14T17:40:06.771Z,95160.30
2018-02-14T17:43:10.057Z,95162.88
2018-02-14T17:46:13.827Z,95169.19
2018-02-14T17:49:17.418Z,95168.73
2018-02-14T17:52:21.439Z,95168.92
2018-02-14T17:55:24.736Z,95167.70
2018-02-14T17:58:28.013Z,95162.59
2018-02-14T18:01:33.312Z,95170.23
2018-02-14T18:04:36.797Z,95177.36
2018-02-14T18:07:40.126Z,95179.00
2018-02-14T18:10:44.721Z,95171.39
2018-02-14T18:13:48.032Z,95177.28
2018-02-14T18:16:51.320Z,95175.29
2018-02-14T18:19:55.579Z,95170.72
2018-02-14T18:22:59.197Z,95172.60
2018-02-14T18:26:03.188Z,95170.27
2018-02-14T18:29:06.479Z,95181.01
2018-02-14T18:32:09.825Z,95184.72
2018-02-14T18:35:13.861Z,95188.97
2018-02-14T18:38:17.138Z,95192.59
2018-02-14T18:41:21.194Z,95188.36
2018-02-14T18:44:24.482Z,95195.12
2018-02-14T18:47:27.766Z,95195.86
2018-02-14T18:50:31.058Z,95191.91
2018-02-14T18:53:34.373Z,95198.69
2018-02-14T18:56:37.674Z,95199.52
2018-02-14T18:59:41.114Z,95200.09
2018-02-14T19:02:44.500Z,95203.97
2018-02-14T19:05:47.858Z,95214.53
2018-02-14T19:08:51.192Z,95214.22
2018-02-14T19:11:54.579Z,95218.23
2018-02-14T19:14:57.848Z,95227.95
2018-02-14T19:18:01.145Z,95227.48
2018-02-14T19:21:04.587Z,95239.19
2018-02-14T19:24:07.917Z,95239.05
2018-02-14T19:27:11.993Z,95236.83
2018-02-14T19:30:15.342Z,95237.82
2018-02-14T19:33:19.393Z,95239.88
2018-02-14T19:36:23.554Z,95234.36
2018-02-14T19:39:27.622Z,95240.54
2018-02-14T19:42:30.921Z,95236.70
2018-02-14T19:45:36.151Z,95235.66
2018-02-14T19:48:39.463Z,95239.86
2018-02-14T19:51:42.764Z,95242.00
2018-02-14T19:54:46.049Z,95247.78
2018-02-14T19:57:49.873Z,95241.62
2018-02-14T20:00:54.242Z,95240.92
2018-02-14T20:03:57.532Z,95247.46
2018-02-14T20:07:00.824Z,95248.69
2018-02-14T20:10:05.213Z,95249.84
2018-02-14T20:13:08.505Z,95256.01
2018-02-14T20:16:11.796Z,95250.78
2018-02-14T20:19:15.087Z,95254.86
2018-02-14T20:22:18.417Z,95256.48
2018-02-14T20:25:21.683Z,95248.06
2018-02-14T20:28:24.972Z,95247.02
2018-02-14T20:31:29.018Z,95248.99
2018-02-14T20:34:32.328Z,95259.16
2018-02-14T20:37:36.701Z,95256.46
2018-02-14T20:40:40.742Z,95259.54
2018-02-14T20:43:44.021Z,95261.81
2018-02-14T20:46:48.110Z,95262.65
2018-02-14T20:49:51.367Z,95266.75
2018-02-14T20:52:54.688Z,95270.02
2018-02-14T20:55:57.977Z,95270.06
2018-02-14T20:59:01.268Z,95275.82
2018-02-14T21:02:04.550Z,95281.55
2018-02-14T21:05:07.841Z,95284.82
2018-02-14T21:08:11.132Z,95281.02
2018-02-14T21:11:14.449Z,95280.52
2018-02-14T21:14:17.720Z,95271.59
2018-02-14T21:17:21.018Z,95273.50
2018-02-14T21:20:24.305Z,95275.27
2018-02-14T21:23:28.348Z,95265.48
2018-02-14T21:26:31.612Z,95254.93
2018-02-14T21:29:35.753Z,95260.42
2018-02-14T21:32:39.082Z,95267.08
2018-02-14T21:35:42.370Z,95265.10
2018-02-14T21:38:45.640Z,95264.09
2018-02-14T21:41:48.924Z,95266.01
2018-02-14T21:44:52.973Z,95259.53
2018-02-14T21:47:56.245Z,95260.85
2018-02-14T21:51:00.318Z,95261.37
2018-02-14T21:54:03.589Z,95255.93
2018-02-14T21:57:06.869Z,95258.66
2018-02-14T22:00:10.150Z,95255.64
2018-02-14T22:03:14.251Z,95250.09
2018-02-14T22:06:17.553Z,95246.52
2018-02-14T22:09:21.596Z,95249.91
2018-02-14T22:12:24.869Z,95236.45
2018-02-14T22:15:28.917Z,95243.52
2018-02-14T22:18:32.180Z,95245.35
2018-02-14T22:21:36.317Z,95234.58
2018-02-14T22:24:43.822Z,95230.20
2018-02-14T22:27:47.120Z,95227.13
2018-02-14T22:30:51.088Z,95221.75
2018-02-14T22:33:54.368Z,95215.07
2018-02-14T22:36:57.653Z,95219.84
2018-02-14T22:40:01.693Z,95219.68
2018-02-14T22:43:04.959Z,95218.46
2018-02-14T22:46:08.244Z,95215.66
2018-02-14T22:49:11.550Z,95214.89
2018-02-14T22:52:14.850Z,95215.72
2018-02-14T22:55:18.152Z,95216.38
2018-02-14T22:58:22.032Z,95206.81
2018-02-14T23:01:25.309Z,95216.12
2018-02-14T23:04:29.336Z,95216.33
2018-02-14T23:07:33.386Z,95211.86
2018-02-14T23:10:36.649Z,95210.05
2018-02-14T23:13:41.973Z,95214.11
2018-02-14T23:16:45.260Z,95215.02
2018-02-14T23:19:48.533Z,95204.50
2018-02-14T23:22:51.829Z,95204.63
2018-02-14T23:25:55.119Z,95205.68
2018-02-14T23:28:58.481Z,95205.77
2018-02-14T23:32:02.530Z,95202.07
2018-02-14T23:35:05.837Z,95204.50
2018-02-14T23:38:09.915Z,95204.28
2018-02-14T23:41:13.952Z,95204.78
2018-02-14T23:44:18.306Z,95201.94
2018-02-14T23:47:21.583Z,95202.28
2018-02-14T23:50:24.866Z,95195.24
2018-02-14T23:53:28.139Z,95187.47
2018-02-14T23:56:32.179Z,95180.03
2018-02-14T23:59:35.491Z,95173.08
